San Diego, California
Traffic Map
Current Weather Conditions
San Diego, California
Scattered Clouds
Scattered Clouds
64°
Feels Like: 64°
Wind Chill: 64° Ceiling: Unl
Heat Index: 64° Visibility: 10mi
Dew Point: 56° Wind: 0mph
Humidity: 75% Direction: ° ()
Pressure: 30.06in Gusts: 0mph
Raw Report DataKSAN 291551Z 00000KT 10SM FEW010 SCT200 18/13 A3006 RMK AO2 SLP179 T01780133
Traffic Incident Summary
Active as of:
Severity:
Category:
InformationThere was an issue retrieving the traffic information for this location. Please try a different location or try again shortly.
Advertisements
Track Severe Weather on mobile